Time;durP1;ratioP1;P1;durP2;ratioP2;P2;SDS_P1;SDS_P2;PMS_P1;PMS_P2;Temp;Humidity;BMP_temperature;BMP_pressure;BME280_temperature;BME280_humidity;BME280_pressure;Samples;Min_cycle;Max_cycle;Signal;HPM_P1;HPM_P2
2022/04/04 00:00:12;;;;;;;6.70;3.72;;;12.90;58.30;;;;;;4995663;28;20062;-65
2022/04/04 00:02:38;;;;;;;4.85;3.53;;;12.90;58.50;;;;;;4995848;28;20030;-65
2022/04/04 00:05:05;;;;;;;5.13;3.78;;;12.80;59.30;;;;;;4995719;28;20022;-57
2022/04/04 00:07:31;;;;;;;5.10;3.42;;;12.80;58.60;;;;;;4995795;28;20380;-63
2022/04/04 00:09:56;;;;;;;6.35;4.40;;;12.80;58.50;;;;;;4995667;28;20030;-56
2022/04/04 00:12:22;;;;;;;4.88;4.38;;;12.80;58.80;;;;;;4995530;28;20023;-55
2022/04/04 00:14:48;;;;;;;8.40;4.60;;;12.80;59.50;;;;;;4995700;28;20533;-63
2022/04/04 00:17:14;;;;;;;4.72;4.10;;;12.80;58.70;;;;;;4995677;28;20026;-63
2022/04/04 00:19:39;;;;;;;6.32;3.85;;;12.70;58.80;;;;;;4995544;28;20396;-62
2022/04/04 00:22:05;;;;;;;4.82;3.60;;;12.70;58.90;;;;;;4995812;28;20423;-59
2022/04/04 00:24:31;;;;;;;4.35;3.50;;;12.70;58.80;;;;;;4995455;28;20447;-57
2022/04/04 00:26:57;;;;;;;6.50;4.10;;;12.70;59.40;;;;;;4995246;28;20022;-58
2022/04/04 00:29:24;;;;;;;4.88;4.03;;;12.70;59.10;;;;;;4995310;28;20026;-59
2022/04/04 00:31:50;;;;;;;4.32;3.60;;;12.70;59.00;;;;;;4995466;28;20065;-58
2022/04/04 00:34:16;;;;;;;4.65;3.88;;;12.70;59.00;;;;;;4995099;28;20037;-60
2022/04/04 00:36:43;;;;;;;5.88;3.92;;;12.60;59.10;;;;;;4995373;28;20375;-56
2022/04/04 00:39:15;;;;;;;5.20;3.95;;;12.60;58.80;;;;;;4995142;28;20050;-57
2022/04/04 00:41:45;;;;;;;5.38;4.07;;;12.60;58.70;;;;;;4995062;28;20015;-54
2022/04/04 00:44:10;;;;;;;6.05;3.80;;;12.60;58.70;;;;;;4995240;28;20487;-60
2022/04/04 00:46:40;;;;;;;7.28;4.57;;;12.60;59.40;;;;;;4995116;28;20030;-55
2022/04/04 00:49:06;;;;;;;5.65;3.80;;;12.50;58.60;;;;;;4994811;28;20038;-65
2022/04/04 00:51:31;;;;;;;7.72;3.65;;;12.50;58.80;;;;;;4994944;28;20030;-64
2022/04/04 00:53:57;;;;;;;4.13;3.53;;;12.50;58.70;;;;;;4995030;28;20039;-55
2022/04/04 00:56:25;;;;;;;4.70;3.28;;;12.50;59.00;;;;;;4994275;28;20028;-57
2022/04/04 00:58:51;;;;;;;4.63;3.50;;;12.50;58.80;;;;;;4994861;28;20096;-66
2022/04/04 01:01:16;;;;;;;3.72;3.42;;;12.50;58.90;;;;;;4994669;28;20419;-55
2022/04/04 01:03:42;;;;;;;4.38;3.42;;;12.50;58.90;;;;;;4994915;28;20019;-61
2022/04/04 01:06:07;;;;;;;4.50;3.38;;;12.50;58.40;;;;;;4994732;28;20049;-54
2022/04/04 01:08:33;;;;;;;6.22;3.60;;;12.40;58.70;;;;;;4994714;28;20093;-64
2022/04/04 01:10:58;;;;;;;4.20;3.50;;;12.40;58.80;;;;;;4986539;28;20504;-63
2022/04/04 01:13:24;;;;;;;5.00;3.30;;;12.40;58.90;;;;;;4990032;28;20042;-54
2022/04/04 01:15:50;;;;;;;4.93;3.22;;;12.30;58.90;;;;;;4993899;28;20468;-60
2022/04/04 01:18:16;;;;;;;5.35;3.42;;;12.30;59.00;;;;;;4993646;28;20043;-63
2022/04/04 01:20:41;;;;;;;5.32;3.85;;;12.30;59.10;;;;;;4994313;28;20026;-55
2022/04/04 01:23:07;;;;;;;4.50;3.10;;;12.30;59.00;;;;;;4994439;28;20054;-53
2022/04/04 01:25:37;;;;;;;5.88;4.18;;;12.30;59.60;;;;;;4993853;28;20023;-55
2022/04/04 01:28:05;;;;;;;5.95;3.95;;;12.30;59.30;;;;;;4994399;28;20022;-54
2022/04/04 01:30:31;;;;;;;5.45;3.63;;;12.20;59.40;;;;;;4994300;28;20104;-60
2022/04/04 01:32:57;;;;;;;6.28;4.00;;;12.20;59.50;;;;;;4994273;28;20093;-57
2022/04/04 01:35:22;;;;;;;7.57;4.32;;;12.20;59.50;;;;;;4994156;28;20029;-57
2022/04/04 01:37:48;;;;;;;8.07;4.10;;;12.20;59.50;;;;;;4994243;28;20031;-57
2022/04/04 01:40:15;;;;;;;5.15;4.07;;;12.20;59.50;;;;;;4994319;28;20029;-59
2022/04/04 01:42:45;;;;;;;6.32;3.70;;;12.20;59.60;;;;;;4994049;28;20110;-58
2022/04/04 01:45:11;;;;;;;6.10;4.20;;;12.10;59.70;;;;;;4994167;28;20030;-55
2022/04/04 01:47:37;;;;;;;6.13;4.20;;;12.20;59.70;;;;;;4994052;28;20097;-56
2022/04/04 01:50:04;;;;;;;6.65;4.28;;;12.10;60.00;;;;;;4994118;28;20471;-54
2022/04/04 01:52:30;;;;;;;6.60;4.43;;;12.10;59.80;;;;;;4993503;28;20038;-55
2022/04/04 01:54:55;;;;;;;6.07;4.05;;;12.10;59.80;;;;;;4993975;28;20029;-57
2022/04/04 01:57:21;;;;;;;5.65;4.38;;;12.10;60.00;;;;;;4993809;28;20034;-54
2022/04/04 01:59:46;;;;;;;7.50;4.22;;;12.10;60.30;;;;;;4993931;28;20069;-56
2022/04/04 02:02:12;;;;;;;5.18;4.00;;;12.10;60.00;;;;;;4993866;28;20076;-59
2022/04/04 02:04:38;;;;;;;7.05;4.75;;;12.10;60.00;;;;;;4993837;28;20019;-57
2022/04/04 02:07:07;;;;;;;6.90;4.13;;;12.00;60.50;;;;;;4993450;28;20023;-59
2022/04/04 02:09:34;;;;;;;7.40;4.43;;;12.00;60.20;;;;;;4993642;28;20030;-55
2022/04/04 02:11:59;;;;;;;5.72;4.65;;;12.00;60.20;;;;;;4993742;28;20101;-56
2022/04/04 02:14:25;;;;;;;6.10;4.78;;;12.00;60.40;;;;;;4994013;28;20467;-59
2022/04/04 02:16:51;;;;;;;6.93;4.30;;;11.90;60.60;;;;;;4993859;28;20041;-53
2022/04/04 02:19:17;;;;;;;7.85;4.50;;;12.00;60.90;;;;;;4993578;28;20396;-58
2022/04/04 02:21:44;;;;;;;5.50;4.50;;;12.00;60.80;;;;;;4993124;28;20025;-59
2022/04/04 02:24:10;;;;;;;6.88;4.60;;;12.00;60.70;;;;;;4993768;28;20535;-64
2022/04/04 02:26:36;;;;;;;6.47;4.60;;;11.90;60.90;;;;;;4993650;28;20061;-55
2022/04/04 02:29:01;;;;;;;5.55;4.47;;;11.90;61.00;;;;;;4993589;28;20060;-56
2022/04/04 02:31:27;;;;;;;4.95;4.05;;;11.90;61.30;;;;;;4996288;28;20105;-57
2022/04/04 02:33:53;;;;;;;6.03;3.78;;;11.90;61.30;;;;;;4997462;28;20039;-65
2022/04/04 02:36:20;;;;;;;8.18;4.25;;;11.90;61.40;;;;;;4997425;28;20033;-65
2022/04/04 02:38:46;;;;;;;6.35;4.65;;;11.90;61.40;;;;;;4997538;28;20026;-65
2022/04/04 02:41:11;;;;;;;7.80;4.25;;;11.90;61.60;;;;;;4997400;28;20353;-65
2022/04/04 02:43:37;;;;;;;6.53;4.53;;;11.90;61.50;;;;;;4997361;28;20034;-65
2022/04/04 02:46:03;;;;;;;6.07;4.32;;;11.90;61.50;;;;;;4997592;28;20029;-65
2022/04/04 02:48:28;;;;;;;7.63;4.70;;;11.90;61.80;;;;;;4997271;28;20030;-65
2022/04/04 02:50:54;;;;;;;6.85;4.25;;;11.80;61.60;;;;;;4997150;28;20471;-62
2022/04/04 02:53:20;;;;;;;6.90;4.20;;;11.80;61.80;;;;;;4997198;28;20463;-55
2022/04/04 02:58:30;;;;;;;6.20;4.57;;;11.80;62.30;;;;;;4997213;28;20049;-65
2022/04/04 03:00:55;;;;;;;6.55;4.38;;;11.80;62.10;;;;;;4997428;28;20031;-52
2022/04/04 03:03:21;;;;;;;6.15;4.15;;;11.80;62.00;;;;;;4997109;28;20072;-54
2022/04/04 03:05:46;;;;;;;9.05;4.93;;;11.80;62.20;;;;;;4996622;28;20048;-55
2022/04/04 03:08:12;;;;;;;6.35;4.05;;;11.80;62.50;;;;;;4996965;28;20468;-55
2022/04/04 03:10:38;;;;;;;5.85;4.65;;;11.80;62.30;;;;;;4996978;28;20041;-65
2022/04/04 03:13:05;;;;;;;5.38;4.18;;;11.80;62.50;;;;;;4996823;28;20035;-62
2022/04/04 03:15:34;;;;;;;7.15;4.45;;;11.80;62.60;;;;;;4996771;28;20018;-62
2022/04/04 03:18:00;;;;;;;6.30;4.53;;;11.80;62.80;;;;;;4996551;28;20053;-62
2022/04/04 03:20:26;;;;;;;6.63;4.43;;;11.80;62.70;;;;;;4995238;28;20037;-61
2022/04/04 03:22:55;;;;;;;4.78;4.13;;;11.80;62.60;;;;;;4995393;28;20578;-57
2022/04/04 03:25:21;;;;;;;5.72;4.28;;;11.80;62.70;;;;;;4995579;28;20486;-65
2022/04/04 03:27:48;;;;;;;6.82;3.88;;;11.80;63.00;;;;;;4995248;28;20495;-56
2022/04/04 03:30:25;;;;;;;6.55;4.60;;;11.80;63.50;;;;;;4993564;28;20111;-57
2022/04/04 03:32:54;;;;;;;4.82;3.58;;;11.80;63.50;;;;;;4995090;28;20126;-55
2022/04/04 03:35:20;;;;;;;5.90;4.93;;;11.80;63.60;;;;;;4995098;28;20447;-55
2022/04/04 03:37:48;;;;;;;5.93;3.92;;;11.90;63.80;;;;;;4995234;28;20488;-62
2022/04/04 03:40:14;;;;;;;5.82;4.28;;;11.80;63.40;;;;;;4994472;28;20029;-62
2022/04/04 03:42:44;;;;;;;4.50;3.30;;;11.90;63.60;;;;;;4993697;28;20054;-56
2022/04/04 03:45:11;;;;;;;4.78;3.00;;;11.90;63.90;;;;;;4994625;28;20053;-62
2022/04/04 03:47:37;;;;;;;5.40;3.58;;;12.00;63.90;;;;;;4995195;28;20076;-54
2022/04/04 03:50:05;;;;;;;5.32;3.20;;;12.10;63.90;;;;;;4994840;28;20022;-57
2022/04/04 03:52:31;;;;;;;3.70;2.85;;;12.10;63.70;;;;;;4994870;28;20026;-56
2022/04/04 03:54:56;;;;;;;6.85;2.95;;;12.10;63.70;;;;;;4994979;28;20027;-63
2022/04/04 03:57:22;;;;;;;2.75;2.28;;;12.10;63.40;;;;;;4994786;28;20027;-55
2022/04/04 03:59:48;;;;;;;4.45;2.95;;;12.10;63.50;;;;;;4994660;28;20030;-58
2022/04/04 04:02:14;;;;;;;5.13;4.03;;;12.20;63.60;;;;;;4995014;28;20030;-61
2022/04/04 04:04:39;;;;;;;3.45;2.55;;;12.20;63.10;;;;;;4994483;28;20035;-60
2022/04/04 04:07:06;;;;;;;4.55;2.53;;;12.20;63.10;;;;;;4995157;28;20030;-67
2022/04/04 04:09:31;;;;;;;3.80;2.38;;;12.20;63.20;;;;;;4994471;28;20391;-64
2022/04/04 04:11:57;;;;;;;5.68;2.95;;;12.20;63.50;;;;;;4994832;28;20023;-56
2022/04/04 04:14:26;;;;;;;5.03;3.95;;;12.20;63.40;;;;;;4977214;28;20166;-56
2022/04/04 04:16:51;;;;;;;2.85;2.40;;;12.20;63.10;;;;;;4994790;28;20026;-57
2022/04/04 04:22:09;;;;;;;3.53;1.87;;;12.10;63.10;;;;;;4980207;28;20053;-67
2022/04/04 04:24:34;;;;;;;3.58;2.00;;;12.20;63.40;;;;;;4995422;28;20747;-66
2022/04/04 04:27:00;;;;;;;5.45;3.60;;;12.20;63.60;;;;;;4995504;28;20068;-66
2022/04/04 04:29:25;;;;;;;6.70;3.65;;;12.20;63.60;;;;;;4995455;28;20054;-62
2022/04/04 04:31:51;;;;;;;5.07;2.88;;;12.20;63.30;;;;;;4977620;28;20042;-64
2022/04/04 04:34:17;;;;;;;4.63;3.10;;;12.20;63.60;;;;;;4995329;28;20030;-58
2022/04/04 04:36:42;;;;;;;4.85;2.95;;;12.20;63.40;;;;;;4995307;28;20031;-56
2022/04/04 04:39:09;;;;;;;3.63;2.58;;;12.20;63.30;;;;;;4994839;28;20054;-63
2022/04/04 04:41:35;;;;;;;3.97;2.25;;;12.20;63.60;;;;;;4994193;28;20034;-54
2022/04/04 04:44:03;;;;;;;3.25;2.50;;;12.10;63.50;;;;;;4995179;28;20037;-66
2022/04/04 04:46:30;;;;;;;3.88;2.75;;;12.20;63.40;;;;;;4994658;28;20096;-64
2022/04/04 04:48:56;;;;;;;6.28;3.17;;;12.20;63.40;;;;;;4994866;28;20030;-63
2022/04/04 04:51:21;;;;;;;3.10;1.67;;;12.20;63.20;;;;;;4994719;28;20026;-65
2022/04/04 04:53:47;;;;;;;4.35;2.60;;;12.20;63.60;;;;;;4993930;28;20443;-56
2022/04/04 04:56:13;;;;;;;4.13;1.73;;;12.10;63.40;;;;;;4994914;28;20046;-65
2022/04/04 04:58:38;;;;;;;6.88;3.72;;;12.20;63.80;;;;;;4994564;28;20035;-57
2022/04/04 05:01:04;;;;;;;7.60;3.80;;;12.20;63.30;;;;;;4989978;28;20038;-59
2022/04/04 05:03:29;;;;;;;6.72;4.50;;;12.10;63.30;;;;;;4993164;28;20097;-66
2022/04/04 05:05:55;;;;;;;8.88;3.92;;;12.00;63.20;;;;;;4989847;28;20496;-56
2022/04/04 05:08:21;;;;;;;5.07;3.38;;;12.00;63.50;;;;;;4992405;28;20037;-55
2022/04/04 05:10:47;;;;;;;5.88;3.83;;;11.90;63.80;;;;;;4993391;28;20026;-54
2022/04/04 05:13:13;;;;;;;7.78;4.20;;;11.90;63.60;;;;;;4994332;28;20045;-62
2022/04/04 05:15:40;;;;;;;8.18;4.65;;;11.90;63.60;;;;;;4993798;28;20490;-55
2022/04/04 05:18:06;;;;;;;8.63;4.22;;;11.80;63.60;;;;;;4994426;28;20034;-64
2022/04/04 05:20:31;;;;;;;7.40;4.32;;;11.90;63.90;;;;;;4993195;28;20037;-64
2022/04/04 05:22:57;;;;;;;5.65;3.58;;;11.80;63.80;;;;;;4994558;28;20030;-64
2022/04/04 05:25:23;;;;;;;7.75;3.72;;;11.90;63.90;;;;;;4994368;28;20113;-65
2022/04/04 05:27:50;;;;;;;7.32;2.80;;;11.90;63.90;;;;;;4994186;28;20026;-65
2022/04/04 05:30:17;;;;;;;5.60;4.38;;;11.80;64.30;;;;;;4993828;28;20031;-66
2022/04/04 05:32:43;;;;;;;6.70;4.45;;;11.80;64.00;;;;;;4994014;28;20472;-65
2022/04/04 05:35:11;;;;;;;7.25;4.25;;;11.80;63.80;;;;;;4994465;28;20034;-64
2022/04/04 05:37:37;;;;;;;6.03;4.90;;;11.70;63.80;;;;;;4994199;28;20022;-64
2022/04/04 05:40:03;;;;;;;5.80;3.42;;;11.70;63.70;;;;;;4994009;28;20026;-63
2022/04/04 05:42:30;;;;;;;7.28;4.28;;;11.80;64.10;;;;;;4994005;28;20027;-65
2022/04/04 05:44:55;;;;;;;4.30;3.35;;;11.80;64.00;;;;;;4993777;28;20384;-65
2022/04/04 05:47:21;;;;;;;6.57;4.72;;;11.80;64.30;;;;;;4994158;28;20023;-65
2022/04/04 05:49:48;;;;;;;5.25;4.32;;;11.70;64.00;;;;;;4993901;28;20033;-59
2022/04/04 05:52:15;;;;;;;11.52;3.63;;;11.80;64.10;;;;;;4993879;28;20049;-66
2022/04/04 05:54:54;;;;;;;5.78;2.17;;;11.80;64.60;;;;;;4993875;28;20109;-64
2022/04/04 05:57:21;;;;;;;8.23;2.35;;;12.00;64.70;;;;;;4993849;28;20448;-64
2022/04/04 05:59:47;;;;;;;5.25;1.77;;;12.30;64.90;;;;;;4993296;28;20460;-64
2022/04/04 06:02:13;;;;;;;3.58;2.17;;;12.50;63.70;;;;;;4993810;28;20033;-66
2022/04/04 06:04:38;;;;;;;5.03;2.65;;;12.60;63.40;;;;;;4993789;28;20467;-65
2022/04/04 06:07:04;;;;;;;5.97;1.95;;;12.70;63.10;;;;;;4993682;28;20030;-65
2022/04/04 06:09:30;;;;;;;3.78;1.85;;;12.80;63.60;;;;;;4993751;28;20045;-66
2022/04/04 06:11:55;;;;;;;4.32;2.45;;;13.00;62.90;;;;;;4993539;28;20423;-65
2022/04/04 06:14:21;;;;;;;6.57;2.40;;;13.10;62.60;;;;;;4991515;28;20041;-65
2022/04/04 06:16:46;;;;;;;3.88;2.67;;;13.20;62.70;;;;;;4983406;28;20062;-65
2022/04/04 06:19:12;;;;;;;3.00;2.25;;;13.30;62.50;;;;;;4992611;28;20062;-66
2022/04/04 06:21:38;;;;;;;7.75;3.63;;;13.40;62.40;;;;;;4992675;28;20570;-66
2022/04/04 06:24:03;;;;;;;3.08;1.30;;;13.50;62.10;;;;;;4988871;28;20376;-66
2022/04/04 06:26:30;;;;;;;5.25;2.90;;;13.50;62.40;;;;;;4993075;28;20427;-66
2022/04/04 06:28:56;;;;;;;3.67;2.25;;;13.70;62.20;;;;;;4976922;28;20472;-65
2022/04/04 06:31:21;;;;;;;5.22;2.17;;;13.80;62.20;;;;;;4974192;28;20039;-66
2022/04/04 06:33:48;;;;;;;2.13;1.20;;;13.90;61.90;;;;;;4972901;28;20114;-65
2022/04/04 06:36:13;;;;;;;5.43;1.73;;;14.10;61.80;;;;;;4973886;28;20031;-66
2022/04/04 06:38:39;;;;;;;4.72;1.52;;;14.30;61.20;;;;;;4973982;28;20150;-67
2022/04/04 06:41:05;;;;;;;5.55;1.73;;;14.40;61.20;;;;;;4956804;28;20031;-66
2022/04/04 06:43:30;;;;;;;6.38;2.85;;;14.40;60.90;;;;;;4973334;28;20039;-66
2022/04/04 06:45:56;;;;;;;4.95;3.08;;;14.40;61.10;;;;;;4973972;28;20023;-66
2022/04/04 06:48:23;;;;;;;2.70;1.15;;;14.40;61.20;;;;;;4974043;28;20022;-66
2022/04/04 06:50:49;;;;;;;5.30;2.40;;;14.40;61.20;;;;;;4973942;28;20043;-66
2022/04/04 06:53:15;;;;;;;4.40;1.13;;;14.30;61.10;;;;;;4973589;28;20548;-67
2022/04/04 06:55:42;;;;;;;4.07;1.33;;;14.40;61.30;;;;;;4973938;28;20102;-66
2022/04/04 06:58:07;;;;;;;3.92;1.45;;;14.40;61.10;;;;;;4973357;28;20589;-65
2022/04/04 07:00:35;;;;;;;3.13;1.25;;;14.50;61.20;;;;;;4973736;28;20023;-64
2022/04/04 07:03:01;;;;;;;2.60;1.13;;;14.50;61.20;;;;;;4973772;28;20038;-65
2022/04/04 07:05:27;;;;;;;7.93;3.42;;;14.60;61.10;;;;;;4973817;28;20085;-66
2022/04/04 07:07:53;;;;;;;5.30;2.15;;;14.60;61.10;;;;;;4974953;28;20018;-67
2022/04/04 07:10:19;;;;;;;6.88;2.38;;;14.50;61.30;;;;;;4982011;28;20033;-66
2022/04/04 07:12:45;;;;;;;7.63;1.45;;;14.60;61.30;;;;;;4992642;28;20027;-66
2022/04/04 07:15:12;;;;;;;6.25;2.92;;;14.60;61.70;;;;;;4993000;28;20027;-66
2022/04/04 07:17:40;;;;;;;5.97;2.13;;;14.50;61.10;;;;;;4995822;28;20026;-65
2022/04/04 07:20:06;;;;;;;3.72;1.52;;;14.50;61.70;;;;;;4992148;28;20038;-55
2022/04/04 07:22:40;;;;;;;4.68;1.90;;;14.40;61.80;;;;;;4995870;28;20077;-67
2022/04/04 07:25:07;;;;;;;7.93;3.55;;;14.40;61.80;;;;;;4996173;28;20023;-67
2022/04/04 07:27:33;;;;;;;6.50;2.20;;;14.40;61.80;;;;;;4996254;28;20054;-65
2022/04/04 07:29:59;;;;;;;4.93;1.98;;;14.50;61.50;;;;;;4996335;28;20440;-67
2022/04/04 07:32:25;;;;;;;4.63;1.98;;;14.50;61.60;;;;;;4996400;28;20105;-67
2022/04/04 07:34:51;;;;;;;8.38;1.52;;;14.60;61.60;;;;;;4996269;28;20034;-67
2022/04/04 07:37:17;;;;;;;4.90;1.60;;;14.60;61.60;;;;;;4996085;28;20395;-67
2022/04/04 07:39:42;;;;;;;5.35;3.60;;;14.70;61.50;;;;;;4996332;28;20072;-67
2022/04/04 07:42:08;;;;;;;6.05;1.20;;;14.70;61.50;;;;;;4996240;28;20034;-67
2022/04/04 07:44:34;;;;;;;5.18;1.73;;;14.70;61.70;;;;;;4996190;28;20030;-67
2022/04/04 07:47:00;;;;;;;5.85;1.60;;;14.80;61.50;;;;;;4996268;28;20026;-63
2022/04/04 07:49:26;;;;;;;5.18;1.85;;;14.90;61.50;;;;;;4995965;28;20022;-66
2022/04/04 07:51:53;;;;;;;4.22;1.30;;;14.90;61.40;;;;;;4996266;28;20498;-61
2022/04/04 07:54:18;;;;;;;8.85;1.98;;;14.90;61.30;;;;;;4995959;28;20503;-66
2022/04/04 07:56:44;;;;;;;2.80;0.98;;;15.00;61.10;;;;;;4995852;28;20054;-65
2022/04/04 07:59:11;;;;;;;3.55;1.13;;;15.10;61.00;;;;;;4995831;28;20037;-66
2022/04/04 08:01:36;;;;;;;7.97;3.15;;;15.10;60.90;;;;;;4995993;28;20061;-64
2022/04/04 08:04:02;;;;;;;2.80;0.88;;;15.10;60.70;;;;;;4995780;28;20054;-66
2022/04/04 08:06:28;;;;;;;4.40;1.15;;;15.10;61.10;;;;;;4995837;28;20034;-64
2022/04/04 08:08:53;;;;;;;3.88;1.15;;;15.10;61.00;;;;;;4995714;28;20022;-66
2022/04/04 08:11:19;;;;;;;3.67;0.93;;;15.10;61.00;;;;;;4995742;28;20030;-66
2022/04/04 08:13:45;;;;;;;6.30;1.10;;;15.10;61.10;;;;;;4995578;28;20056;-61
2022/04/04 08:16:11;;;;;;;5.35;1.98;;;15.10;61.00;;;;;;4987077;28;20542;-60
2022/04/04 08:18:38;;;;;;;5.07;1.70;;;15.10;60.90;;;;;;4991792;28;20054;-66
2022/04/04 08:21:03;;;;;;;3.38;1.00;;;15.10;60.30;;;;;;4991442;28;20089;-66
2022/04/04 08:23:31;;;;;;;3.08;1.73;;;15.20;60.60;;;;;;4992912;28;20459;-61
2022/04/04 08:25:57;;;;;;;4.70;1.00;;;15.20;60.30;;;;;;4991428;28;20057;-65
2022/04/04 08:28:23;;;;;;;2.47;1.25;;;15.30;60.40;;;;;;4982564;28;20065;-67
2022/04/04 08:30:50;;;;;;;4.00;1.88;;;15.30;60.10;;;;;;4994457;28;20298;-63
2022/04/04 08:33:17;;;;;;;5.15;1.58;;;15.40;60.10;;;;;;4985788;28;20038;-62
2022/04/04 08:35:42;;;;;;;3.63;1.20;;;15.40;60.30;;;;;;4990195;28;20031;-68
2022/04/04 08:38:08;;;;;;;2.45;1.27;;;15.50;60.20;;;;;;4986178;28;20034;-61
2022/04/04 08:40:35;;;;;;;1.67;1.00;;;15.60;60.10;;;;;;4977833;28;20026;-68
2022/04/04 08:43:02;;;;;;;3.35;1.00;;;15.60;59.90;;;;;;4985676;28;20027;-66
2022/04/04 08:45:28;;;;;;;3.55;1.70;;;15.60;60.10;;;;;;4983667;28;20058;-66
2022/04/04 08:47:55;;;;;;;5.57;1.83;;;15.60;60.00;;;;;;4984323;28;20034;-67
2022/04/04 08:50:21;;;;;;;4.10;1.10;;;15.60;60.00;;;;;;4986545;28;20036;-63
2022/04/04 08:52:47;;;;;;;6.30;1.92;;;15.60;60.10;;;;;;4991348;28;20034;-67
2022/04/04 08:55:15;;;;;;;6.20;1.70;;;15.60;60.10;;;;;;4984032;28;20077;-67
2022/04/04 08:57:41;;;;;;;3.15;1.13;;;15.60;60.10;;;;;;4988620;28;20065;-66
2022/04/04 09:00:10;;;;;;;4.57;1.25;;;15.60;60.10;;;;;;4986913;28;20038;-62
2022/04/04 09:02:36;;;;;;;7.38;1.83;;;15.60;60.10;;;;;;4983190;28;20101;-67
2022/04/04 09:05:06;;;;;;;3.20;1.27;;;15.60;60.20;;;;;;4974906;28;20015;-66
2022/04/04 09:07:32;;;;;;;5.30;1.10;;;15.60;60.40;;;;;;4987245;28;20027;-55
2022/04/04 09:09:57;;;;;;;4.55;2.33;;;15.60;60.70;;;;;;4990581;28;20015;-64
2022/04/04 09:12:26;;;;;;;4.38;1.40;;;15.60;60.60;;;;;;4989335;28;20472;-66
2022/04/04 09:14:54;;;;;;;6.57;1.60;;;15.60;60.90;;;;;;4990850;28;20030;-67
2022/04/04 09:17:25;;;;;;;8.63;1.60;;;15.60;60.90;;;;;;4986273;28;20038;-67
2022/04/04 09:19:51;;;;;;;4.28;1.17;;;15.80;60.70;;;;;;4965055;28;21440;-67
2022/04/04 09:22:19;;;;;;;5.82;1.55;;;15.90;60.50;;;;;;4993031;28;20026;-55
2022/04/04 09:25:05;;;;;;;11.80;3.70;;;15.90;60.20;;;;;;4984772;28;20491;-66
2022/04/04 09:27:34;;;;;;;5.18;1.65;;;15.80;60.10;;;;;;4974598;28;20030;-63
2022/04/04 09:30:07;;;;;;;5.32;3.50;;;15.80;61.00;;;;;;4990827;28;20483;-65
2022/04/04 09:32:44;;;;;;;6.45;1.60;;;15.80;60.80;;;;;;4986532;28;21331;-67
2022/04/04 09:35:14;;;;;;;4.65;1.85;;;15.90;60.70;;;;;;4983194;28;20019;-68
2022/04/04 09:37:48;;;;;;;4.05;1.60;;;15.90;60.70;;;;;;4989648;28;20027;-65
2022/04/04 09:40:17;;;;;;;10.32;2.20;;;15.90;60.70;;;;;;4983427;28;20030;-68
2022/04/04 09:42:52;;;;;;;12.38;2.45;;;15.80;60.30;;;;;;4987421;28;20076;-61
2022/04/04 09:45:20;;;;;;;6.22;2.83;;;15.70;61.30;;;;;;4985778;28;20349;-66
2022/04/04 09:48:08;;;;;;;8.15;3.05;;;15.60;61.80;;;;;;4989870;28;20529;-68
2022/04/04 09:50:50;;;;;;;3.45;2.38;;;15.40;62.30;;;;;;4986012;28;20081;-69
2022/04/04 09:53:29;;;;;;;5.93;2.63;;;15.40;62.60;;;;;;4985313;28;20045;-67
2022/04/04 09:55:57;;;;;;;4.20;2.88;;;15.30;62.70;;;;;;4986708;28;20019;-68
2022/04/04 09:58:28;;;;;;;5.18;2.80;;;15.20;63.30;;;;;;4988324;28;20026;-64
2022/04/04 10:00:55;;;;;;;5.40;3.40;;;15.20;63.40;;;;;;4985835;28;20021;-68
2022/04/04 10:03:22;;;;;;;4.32;2.17;;;15.10;63.80;;;;;;4987391;28;20078;-68
2022/04/04 10:05:55;;;;;;;6.63;2.10;;;15.10;63.60;;;;;;4975037;28;20058;-65
2022/04/04 10:08:24;;;;;;;5.00;2.42;;;15.10;63.50;;;;;;4990133;28;20030;-68
2022/04/04 10:10:50;;;;;;;3.38;1.95;;;15.10;63.70;;;;;;4986072;28;20044;-68
2022/04/04 10:13:17;;;;;;;4.72;2.45;;;15.20;63.70;;;;;;4985083;28;20046;-69
2022/04/04 10:15:43;;;;;;;4.35;3.30;;;15.10;64.00;;;;;;4986937;28;20022;-68
2022/04/04 10:18:09;;;;;;;5.18;2.38;;;15.10;64.40;;;;;;4992926;28;20033;-67
2022/04/04 10:20:36;;;;;;;6.60;3.53;;;15.00;64.70;;;;;;4993397;28;20026;-68
2022/04/04 10:23:04;;;;;;;8.10;2.00;;;15.00;65.10;;;;;;4993317;28;20168;-65
2022/04/04 10:25:32;;;;;;;3.88;2.10;;;15.00;64.90;;;;;;4981424;28;20042;-68
2022/04/04 10:28:01;;;;;;;4.93;3.03;;;15.00;65.10;;;;;;4982978;28;20046;-64
2022/04/04 10:30:40;;;;;;;8.02;3.35;;;15.10;65.50;;;;;;4989738;28;20015;-68
2022/04/04 10:33:23;;;;;;;5.40;3.60;;;14.90;66.10;;;;;;4956831;28;20046;-69
2022/04/04 10:35:58;;;;;;;8.93;3.00;;;14.80;66.70;;;;;;4990174;28;20491;-68
2022/04/04 10:38:29;;;;;;;5.88;4.15;;;14.80;67.00;;;;;;4987826;28;20026;-68
2022/04/04 10:40:55;;;;;;;5.45;2.83;;;14.70;67.50;;;;;;4986772;28;20539;-69
2022/04/04 10:43:21;;;;;;;2.92;1.60;;;14.70;67.80;;;;;;4982229;28;20365;-68
2022/04/04 10:45:55;;;;;;;7.10;3.25;;;14.80;67.50;;;;;;4985025;28;20026;-68
2022/04/04 10:48:27;;;;;;;7.32;3.65;;;14.80;67.60;;;;;;4983881;28;20027;-64
2022/04/04 10:50:55;;;;;;;5.70;3.30;;;14.70;68.50;;;;;;4984831;28;20015;-67
2022/04/04 10:53:46;;;;;;;5.40;3.00;;;14.60;69.10;;;;;;4988540;28;20038;-70
2022/04/04 10:56:18;;;;;;;21.25;3.50;;;14.60;68.90;;;;;;4973648;28;20022;-67
2022/04/04 10:58:43;;;;;;;5.28;3.03;;;14.50;69.00;;;;;;4979706;28;20169;-70
2022/04/04 11:01:17;;;;;;;5.75;2.67;;;14.50;69.50;;;;;;4990253;28;20101;-69
2022/04/04 11:03:58;;;;;;;4.15;2.33;;;14.50;69.80;;;;;;4970838;28;20026;-66
2022/04/04 11:09:26;;;;;;;5.38;3.20;;;14.50;70.60;;;;;;4986303;28;20534;-61
2022/04/04 11:12:01;;;;;;;3.65;3.05;;;14.30;71.30;;;;;;4993314;28;20464;-61
2022/04/04 11:15:06;;;;;;;7.30;2.75;;;14.30;71.70;;;;;;4991140;28;20066;-61
2022/04/04 11:17:54;;;;;;;5.90;2.72;;;14.30;71.20;;;;;;4984995;28;20027;-62
2022/04/04 11:20:53;;;;;;;7.93;3.70;;;14.40;71.40;;;;;;4991689;28;20034;-63
2022/04/04 11:23:47;;;;;;;6.03;3.30;;;14.20;72.60;;;;;;4984723;28;20030;-60
2022/04/04 11:26:59;;;;;;;3.72;2.60;;;14.20;73.00;;;;;;4986164;28;20356;-60
2022/04/04 11:29:47;;;;;;;7.32;3.75;;;14.20;73.30;;;;;;4983900;28;20494;-64
2022/04/04 11:32:31;;;;;;;4.63;3.30;;;14.10;73.50;;;;;;4977695;28;20031;-63
2022/04/04 11:35:11;;;;;;;4.68;1.88;;;14.00;74.30;;;;;;4987708;28;20037;-63
2022/04/04 11:38:07;;;;;;;5.20;2.83;;;14.10;73.80;;;;;;4969905;28;20023;-62
2022/04/04 11:40:38;;;;;;;5.70;3.75;;;14.10;73.60;;;;;;4972948;28;20064;-60
2022/04/04 11:43:14;;;;;;;4.90;3.20;;;14.10;74.30;;;;;;4991293;28;20026;-61
2022/04/04 11:45:47;;;;;;;4.85;3.50;;;14.10;74.00;;;;;;4969779;28;20034;-61
2022/04/04 11:48:16;;;;;;;4.45;3.13;;;14.00;74.10;;;;;;4990396;28;20030;-57
2022/04/04 11:50:42;;;;;;;7.97;3.38;;;14.00;73.70;;;;;;4985978;28;20371;-62
2022/04/04 11:53:10;;;;;;;4.82;2.75;;;14.00;75.10;;;;;;4998766;28;20030;-63
2022/04/04 11:55:39;;;;;;;5.22;2.45;;;14.20;73.50;;;;;;4994568;28;20014;-63
2022/04/04 11:58:12;;;;;;;4.20;1.73;;;14.30;73.00;;;;;;4994826;28;20109;-63
2022/04/04 12:00:39;;;;;;;3.03;1.35;;;14.40;72.80;;;;;;4979237;28;20011;-62
2022/04/04 12:03:10;;;;;;;4.10;2.30;;;14.50;72.40;;;;;;4992964;28;20103;-61
2022/04/04 12:05:40;;;;;;;4.55;3.33;;;14.50;72.70;;;;;;4994546;28;20431;-63
2022/04/04 12:08:07;;;;;;;3.17;2.60;;;14.50;73.10;;;;;;4979443;28;20479;-63
2022/04/04 12:10:35;;;;;;;4.72;2.50;;;14.50;73.00;;;;;;4986504;28;20468;-62
2022/04/04 12:13:08;;;;;;;4.32;1.95;;;14.50;73.00;;;;;;4993987;28;20064;-62
2022/04/04 12:15:36;;;;;;;4.53;2.58;;;14.50;72.70;;;;;;4993888;28;20066;-61
2022/04/04 12:18:04;;;;;;;9.13;3.13;;;14.60;73.00;;;;;;4993461;28;20468;-63
2022/04/04 12:20:41;;;;;;;3.45;1.98;;;14.60;73.40;;;;;;4993428;28;20087;-61
2022/04/04 12:26:03;;;;;;;4.07;2.28;;;14.90;72.60;;;;;;4981556;28;20391;-63
2022/04/04 12:28:32;;;;;;;5.00;2.55;;;14.80;72.50;;;;;;4992263;28;20586;-60
2022/04/04 12:31:09;;;;;;;4.22;1.73;;;14.90;72.90;;;;;;4992396;28;20027;-61
2022/04/04 12:33:34;;;;;;;6.63;2.22;;;14.90;73.10;;;;;;4990156;28;20034;-63
2022/04/04 12:36:00;;;;;;;5.20;2.70;;;14.80;73.10;;;;;;4983532;28;20026;-62
2022/04/04 12:38:36;;;;;;;4.72;2.10;;;14.80;73.70;;;;;;4974675;28;20050;-65
2022/04/04 12:41:08;;;;;;;5.90;3.35;;;14.80;73.50;;;;;;4988568;28;20025;-61
2022/04/04 12:43:35;;;;;;;5.93;2.28;;;14.70;73.60;;;;;;4974158;28;20026;-64
2022/04/04 12:46:00;;;;;;;5.22;3.40;;;14.80;73.70;;;;;;4992920;28;20030;-62
2022/04/04 12:48:35;;;;;;;3.78;1.75;;;14.80;73.90;;;;;;4992538;28;20040;-63
2022/04/04 12:51:05;;;;;;;4.93;2.33;;;14.80;73.50;;;;;;4985019;28;20018;-64
2022/04/04 12:53:49;;;;;;;5.38;2.38;;;14.80;73.50;;;;;;4971304;28;20082;-64
2022/04/04 12:56:16;;;;;;;5.30;1.88;;;14.90;73.40;;;;;;4991060;28;20109;-65
2022/04/04 12:58:42;;;;;;;3.38;1.65;;;14.90;73.30;;;;;;4990194;28;20076;-66
2022/04/04 13:01:15;;;;;;;4.25;1.98;;;14.90;73.70;;;;;;4982250;28;20082;-65